createdAt,value
2023-04-08T00:00:16.925Z,135.46
2023-04-08T00:02:49.327Z,135.44
2023-04-08T00:05:24.261Z,143.72
2023-04-08T00:07:56.465Z,145.14
2023-04-08T00:10:29.206Z,141.16
2023-04-08T00:13:01.476Z,142.71
2023-04-08T00:15:33.716Z,141.22
2023-04-08T00:18:06.221Z,135.71
2023-04-08T00:20:41.099Z,128.54
2023-04-08T00:23:13.654Z,134.10
2023-04-08T00:25:46.061Z,141.71
2023-04-08T00:28:18.714Z,139.50
2023-04-08T00:30:51.594Z,127.14
2023-04-08T00:33:25.899Z,128.74
2023-04-08T00:36:00.793Z,140.49
2023-04-08T00:38:33.026Z,135.21
2023-04-08T00:41:05.575Z,136.68
2023-04-08T00:43:37.897Z,136.07
2023-04-08T00:46:10.954Z,128.76
2023-04-08T00:48:43.426Z,130.41
2023-04-08T00:51:18.329Z,138.81
2023-04-08T00:53:50.701Z,125.93
2023-04-08T00:56:22.964Z,123.44
2023-04-08T00:58:55.922Z,124.91
2023-04-08T01:01:38.435Z,124.76
2023-04-08T01:04:25.543Z,117.29
2023-04-08T01:07:07.468Z,113.41
2023-04-08T01:09:48.784Z,115.24
2023-04-08T01:12:30.922Z,118.15
2023-04-08T01:15:08.706Z,120.44
2023-04-08T01:17:44.408Z,126.36
2023-04-08T01:20:19.856Z,127.91
2023-04-08T01:23:10.998Z,136.81
2023-04-08T01:25:43.948Z,131.99
2023-04-08T01:28:23.502Z,129.91
2023-04-08T01:30:57.666Z,127.51
2023-04-08T01:33:32.433Z,126.46
2023-04-08T01:36:05.874Z,121.55
2023-04-08T01:38:41.433Z,119.87
2023-04-08T01:41:16.014Z,123.26
2023-04-08T01:43:52.563Z,117.33
2023-04-08T01:46:26.129Z,119.24
2023-04-08T01:48:59.632Z,113.97
2023-04-08T01:51:34.745Z,110.94
2023-04-08T01:54:07.319Z,117.63
2023-04-08T01:56:45.366Z,110.29
2023-04-08T01:59:23.806Z,105.40
2023-04-08T02:01:58.371Z,100.84
2023-04-08T02:04:30.941Z,98.19
2023-04-08T02:07:03.787Z,101.84
2023-04-08T02:09:36.030Z,98.87
2023-04-08T02:12:08.630Z,95.89
2023-04-08T02:14:43.899Z,96.29
2023-04-08T02:17:25.180Z,96.63
2023-04-08T02:20:09.721Z,99.14
2023-04-08T02:22:47.762Z,102.18
2023-04-08T02:25:24.909Z,101.70
2023-04-08T02:27:59.777Z,101.86
2023-04-08T02:30:36.913Z,105.94
2023-04-08T02:33:09.830Z,104.73
2023-04-08T02:35:45.533Z,109.66
2023-04-08T02:38:17.998Z,110.45
2023-04-08T02:40:50.259Z,112.43
2023-04-08T02:43:26.948Z,110.20
2023-04-08T02:46:04.223Z,109.93
2023-04-08T02:48:36.782Z,106.81
2023-04-08T02:51:09.062Z,101.40
2023-04-08T02:53:41.479Z,99.66
2023-04-08T02:56:14.828Z,98.94
2023-04-08T02:58:47.229Z,100.32
2023-04-08T03:01:22.389Z,101.60
2023-04-08T03:03:54.838Z,100.49
2023-04-08T03:06:27.164Z,103.77
2023-04-08T03:08:59.364Z,100.81
2023-04-08T03:11:31.621Z,105.34
2023-04-08T03:14:03.894Z,107.79
2023-04-08T03:16:38.818Z,113.94
2023-04-08T03:19:11.076Z,112.10
2023-04-08T03:21:43.272Z,115.25
2023-04-08T03:24:15.747Z,112.55
2023-04-08T03:26:47.973Z,116.88
2023-04-08T03:29:20.498Z,120.44
2023-04-08T03:31:55.458Z,122.18
2023-04-08T03:34:27.765Z,130.42
2023-04-08T03:36:59.987Z,126.91
2023-04-08T03:39:32.269Z,130.01
2023-04-08T03:42:04.516Z,134.25
2023-04-08T03:44:36.830Z,148.59
2023-04-08T03:47:11.661Z,145.04
2023-04-08T03:49:44.077Z,143.88
2023-04-08T03:52:16.220Z,152.21
2023-04-08T03:54:48.427Z,150.63
2023-04-08T03:57:20.674Z,149.96
2023-04-08T03:59:52.849Z,153.47
2023-04-08T04:02:27.893Z,163.07
2023-04-08T04:05:00.535Z,156.89
2023-04-08T04:07:32.944Z,157.93
2023-04-08T04:10:05.217Z,158.45
2023-04-08T04:12:37.455Z,156.95
2023-04-08T04:15:10.960Z,150.83
2023-04-08T04:17:45.830Z,150.99
2023-04-08T04:20:18.696Z,148.66
2023-04-08T04:22:51.061Z,145.81
2023-04-08T04:25:23.611Z,146.54
2023-04-08T04:27:55.935Z,148.83
2023-04-08T04:30:28.498Z,151.59
2023-04-08T04:33:03.498Z,152.18
2023-04-08T04:35:35.952Z,150.03
2023-04-08T04:38:12.469Z,152.61
2023-04-08T04:40:44.676Z,151.21
2023-04-08T04:43:16.906Z,154.31
2023-04-08T04:45:49.161Z,157.24
2023-04-08T04:48:23.983Z,152.26
2023-04-08T04:50:59.660Z,157.51
2023-04-08T04:53:31.990Z,151.47
2023-04-08T04:56:04.265Z,153.51
2023-04-08T04:58:36.497Z,154.15
2023-04-08T05:01:08.737Z,153.70
2023-04-08T05:03:43.661Z,151.42
2023-04-08T05:06:15.874Z,152.40
2023-04-08T05:08:48.280Z,150.51
2023-04-08T05:11:22.025Z,145.60
2023-04-08T05:13:54.288Z,150.98
2023-04-08T05:16:26.527Z,153.81
2023-04-08T05:19:01.379Z,151.81
2023-04-08T05:21:33.635Z,138.84
2023-04-08T05:24:06.382Z,143.74
2023-04-08T05:26:38.646Z,152.36
2023-04-08T05:29:10.905Z,152.46
2023-04-08T05:31:43.150Z,153.62
2023-04-08T05:34:23.175Z,151.49
2023-04-08T05:36:55.671Z,148.46
2023-04-08T05:39:27.887Z,152.13
2023-04-08T05:42:00.168Z,149.96
2023-04-08T05:44:32.442Z,143.91
2023-04-08T05:47:04.818Z,139.31
2023-04-08T05:49:39.684Z,135.59
2023-04-08T05:52:11.991Z,135.89
2023-04-08T05:54:47.527Z,135.74
2023-04-08T05:57:19.704Z,130.69
2023-04-08T05:59:53.495Z,133.01
2023-04-08T06:02:26.018Z,130.71
2023-04-08T06:05:01.040Z,131.24
2023-04-08T06:07:33.275Z,126.94
2023-04-08T06:10:07.333Z,124.46
2023-04-08T06:12:40.338Z,123.49
2023-04-08T06:15:13.952Z,128.12
2023-04-08T06:17:46.422Z,126.87
2023-04-08T06:20:21.265Z,123.75
2023-04-08T06:22:53.546Z,124.03
2023-04-08T06:25:26.047Z,124.39
2023-04-08T06:27:58.310Z,129.64
2023-04-08T06:30:30.625Z,132.48
2023-04-08T06:33:02.919Z,131.37
2023-04-08T06:35:37.986Z,126.12
2023-04-08T06:38:10.213Z,123.47
2023-04-08T06:40:43.298Z,124.49
2023-04-08T06:43:15.535Z,126.76
2023-04-08T06:45:47.747Z,126.17
2023-04-08T06:48:19.962Z,126.86
2023-04-08T06:50:54.784Z,127.14
2023-04-08T06:53:29.466Z,130.81
2023-04-08T06:56:01.716Z,129.42
2023-04-08T06:58:33.918Z,130.86
2023-04-08T07:01:06.510Z,132.06
2023-04-08T07:03:38.839Z,130.82
2023-04-08T07:06:13.781Z,130.83
2023-04-08T07:08:46.026Z,131.89
2023-04-08T07:11:18.277Z,129.08
2023-04-08T07:13:50.939Z,128.61
2023-04-08T07:16:23.224Z,122.74
2023-04-08T07:18:55.801Z,127.32
2023-04-08T07:21:31.350Z,124.40
2023-04-08T07:24:03.578Z,124.87
2023-04-08T07:26:35.795Z,122.34
2023-04-08T07:29:08.079Z,128.51
2023-04-08T07:31:40.600Z,127.56
2023-04-08T07:34:12.810Z,121.96
2023-04-08T07:36:47.724Z,121.73
2023-04-08T07:39:19.970Z,122.87
2023-04-08T07:41:52.224Z,119.26
2023-04-08T07:44:24.403Z,123.61
2023-04-08T07:46:56.626Z,123.63
2023-04-08T07:49:28.884Z,122.20
2023-04-08T07:52:03.717Z,120.71
2023-04-08T07:54:36.470Z,123.17
2023-04-08T07:57:08.766Z,118.70
2023-04-08T07:59:41.391Z,118.82
2023-04-08T08:02:13.710Z,124.30
2023-04-08T08:04:46.183Z,120.36
2023-04-08T08:07:21.153Z,113.79
2023-04-08T08:09:53.336Z,122.84
2023-04-08T08:12:25.544Z,120.49
2023-04-08T08:14:59.255Z,120.06
2023-04-08T08:17:33.782Z,120.48
2023-04-08T08:20:07.454Z,118.86
2023-04-08T08:22:56.352Z,117.94
2023-04-08T08:25:29.275Z,116.33
2023-04-08T08:28:01.507Z,120.79
2023-04-08T08:30:34.169Z,120.54
2023-04-08T08:33:06.661Z,117.32
2023-04-08T08:35:38.961Z,116.83
2023-04-08T08:38:13.950Z,119.64
2023-04-08T08:40:46.213Z,115.84
2023-04-08T08:43:18.953Z,121.89
2023-04-08T08:45:51.471Z,119.35
2023-04-08T08:48:24.363Z,121.57
2023-04-08T08:50:56.605Z,122.01
2023-04-08T08:53:35.970Z,122.51
2023-04-08T08:58:43.936Z,123.56
2023-04-08T09:01:35.358Z,121.30
2023-04-08T09:04:18.734Z,124.27
2023-04-08T09:06:52.797Z,123.06
2023-04-08T09:09:29.675Z,121.91
2023-04-08T09:12:09.093Z,120.50
2023-04-08T09:14:41.798Z,120.69
2023-04-08T09:17:14.348Z,118.79
2023-04-08T09:20:12.687Z,117.66
2023-04-08T09:23:08.802Z,121.52
2023-04-08T09:25:43.643Z,120.54
2023-04-08T09:28:24.477Z,119.14
2023-04-08T09:30:56.710Z,124.94
2023-04-08T09:33:35.043Z,123.82
2023-04-08T09:36:07.629Z,127.80
2023-04-08T09:38:40.013Z,129.28
2023-04-08T09:41:19.021Z,130.72
2023-04-08T09:43:54.441Z,131.43
2023-04-08T09:46:33.120Z,130.66
2023-04-08T09:49:11.021Z,132.92
2023-04-08T09:51:53.679Z,130.92
2023-04-08T09:54:31.523Z,129.99
2023-04-08T09:57:14.744Z,130.12
2023-04-08T09:59:56.853Z,136.44
2023-04-08T10:02:48.466Z,136.74
2023-04-08T10:05:22.176Z,137.66
2023-04-08T10:07:55.635Z,143.71
2023-04-08T10:10:29.297Z,138.42
2023-04-08T10:13:04.918Z,126.35
2023-04-08T10:15:39.763Z,125.33
2023-04-08T10:18:37.910Z,122.55
2023-04-08T10:21:40.092Z,115.29
2023-04-08T10:24:14.780Z,113.45
2023-04-08T10:26:49.116Z,118.33
2023-04-08T10:29:39.416Z,115.19
2023-04-08T10:32:12.229Z,114.09
2023-04-08T10:34:57.215Z,113.19
2023-04-08T10:37:29.598Z,111.49
2023-04-08T10:40:01.873Z,110.96
2023-04-08T10:42:34.158Z,113.31
2023-04-08T10:45:10.044Z,109.88
2023-04-08T10:47:42.327Z,105.89
2023-04-08T10:50:18.589Z,110.54
2023-04-08T10:52:52.426Z,108.64
2023-04-08T10:55:28.869Z,107.47
2023-04-08T10:58:11.391Z,106.51
2023-04-08T11:00:46.228Z,109.09
2023-04-08T11:03:18.640Z,109.59
2023-04-08T11:05:50.941Z,111.62
2023-04-08T11:08:23.184Z,110.87
2023-04-08T11:10:55.783Z,110.92
2023-04-08T11:13:28.967Z,109.99
2023-04-08T11:16:17.168Z,109.26
2023-04-08T11:18:50.413Z,105.41
2023-04-08T11:21:23.016Z,102.46
2023-04-08T11:23:56.071Z,100.05
2023-04-08T11:26:30.774Z,103.50
2023-04-08T11:29:03.408Z,99.72
2023-04-08T11:31:39.512Z,101.66
2023-04-08T11:34:13.171Z,101.79
2023-04-08T11:36:45.796Z,97.47
2023-04-08T11:39:18.096Z,91.92
2023-04-08T11:41:50.337Z,91.54
2023-04-08T11:44:22.568Z,87.93
2023-04-08T11:47:02.276Z,82.00
2023-04-08T11:49:48.575Z,84.70
2023-04-08T11:52:22.896Z,87.46
2023-04-08T11:54:55.109Z,87.90
2023-04-08T11:57:33.208Z,84.54
2023-04-08T12:00:05.983Z,77.81
2023-04-08T12:02:41.079Z,71.72
2023-04-08T12:05:13.726Z,72.74
2023-04-08T12:07:46.398Z,73.07
2023-04-08T12:10:18.622Z,74.96
2023-04-08T12:12:50.786Z,69.77
2023-04-08T12:15:23.088Z,71.56
2023-04-08T12:17:57.992Z,64.60
2023-04-08T12:20:30.287Z,69.05
2023-04-08T12:23:02.531Z,76.56
2023-04-08T12:25:34.802Z,74.66
2023-04-08T12:28:07.323Z,72.09
2023-04-08T12:30:39.489Z,70.56
2023-04-08T12:33:15.266Z,71.49
2023-04-08T12:35:48.152Z,77.25
2023-04-08T12:38:20.644Z,67.79
2023-04-08T12:40:52.940Z,66.61
2023-04-08T12:43:25.458Z,64.61
2023-04-08T12:45:57.848Z,63.38
2023-04-08T12:48:33.351Z,66.06
2023-04-08T12:51:05.618Z,65.96
2023-04-08T12:53:37.800Z,67.74
2023-04-08T12:56:11.221Z,74.41
2023-04-08T12:58:43.476Z,76.26
2023-04-08T13:01:16.003Z,78.01
2023-04-08T13:03:51.209Z,75.74
2023-04-08T13:06:23.577Z,74.91
2023-04-08T13:08:55.869Z,72.85
2023-04-08T13:11:28.610Z,67.95
2023-04-08T13:14:00.950Z,72.29
2023-04-08T13:16:33.357Z,75.23
2023-04-08T13:19:08.167Z,76.33
2023-04-08T13:21:40.723Z,82.30
2023-04-08T13:24:12.948Z,84.29
2023-04-08T13:26:45.148Z,87.56
2023-04-08T13:29:17.357Z,87.04
2023-04-08T13:31:49.757Z,88.14
2023-04-08T13:34:24.762Z,88.59
2023-04-08T13:36:57.588Z,88.32
2023-04-08T13:39:29.814Z,94.92
2023-04-08T13:42:03.103Z,88.23
2023-04-08T13:44:35.466Z,85.71
2023-04-08T13:47:07.784Z,87.64
2023-04-08T13:49:42.726Z,85.49
2023-04-08T13:52:15.001Z,82.70
2023-04-08T13:54:47.368Z,82.58
2023-04-08T13:57:19.632Z,80.81
2023-04-08T13:59:51.846Z,78.56
2023-04-08T14:02:24.684Z,79.01
2023-04-08T14:04:59.573Z,77.85
2023-04-08T14:07:31.867Z,77.11
2023-04-08T14:10:04.051Z,76.49
2023-04-08T14:12:36.361Z,73.19
2023-04-08T14:15:09.425Z,76.30
2023-04-08T14:17:42.204Z,76.24
2023-04-08T14:20:17.244Z,75.79
2023-04-08T14:22:49.496Z,73.56
2023-04-08T14:25:21.966Z,73.59
2023-04-08T14:27:58.040Z,76.14
2023-04-08T14:30:32.012Z,71.71
2023-04-08T14:33:05.419Z,72.41
2023-04-08T14:35:40.422Z,68.59
2023-04-08T14:38:12.830Z,67.17
2023-04-08T14:40:45.222Z,69.91
2023-04-08T14:43:17.458Z,68.91
2023-04-08T14:45:49.718Z,69.97
2023-04-08T14:48:22.003Z,63.90
2023-04-08T14:50:57.018Z,58.66
2023-04-08T14:53:29.567Z,55.79
2023-04-08T14:56:01.970Z,52.56
2023-04-08T14:58:34.192Z,57.51
2023-04-08T15:01:06.540Z,62.39
2023-04-08T15:03:39.008Z,68.51
2023-04-08T15:06:17.148Z,72.26
2023-04-08T15:08:49.576Z,68.81
2023-04-08T15:11:22.396Z,71.89
2023-04-08T15:13:54.585Z,70.48
2023-04-08T15:16:26.911Z,69.21
2023-04-08T15:19:00.465Z,70.84
2023-04-08T15:21:36.466Z,69.89
2023-04-08T15:24:08.705Z,67.59
2023-04-08T15:26:41.146Z,69.00
2023-04-08T15:29:13.496Z,71.53
2023-04-08T15:31:45.955Z,71.95
2023-04-08T15:34:18.179Z,76.73
2023-04-08T15:36:52.939Z,77.63
2023-04-08T15:39:25.176Z,77.91
2023-04-08T15:41:57.984Z,77.86
2023-04-08T15:44:30.213Z,76.10
2023-04-08T15:47:02.888Z,79.72
2023-04-08T15:49:35.136Z,78.16
2023-04-08T15:52:10.179Z,78.04
2023-04-08T15:54:42.396Z,77.38
2023-04-08T15:57:16.345Z,76.16
2023-04-08T15:59:48.655Z,74.60
2023-04-08T16:02:21.043Z,73.26
2023-04-08T16:04:53.330Z,72.19
2023-04-08T16:07:28.170Z,72.85
2023-04-08T16:10:00.376Z,73.24
2023-04-08T16:12:32.999Z,68.84
2023-04-08T16:15:05.443Z,71.96
2023-04-08T16:17:37.844Z,74.69
2023-04-08T16:20:11.743Z,77.28
2023-04-08T16:22:46.526Z,81.86
2023-04-08T16:25:18.739Z,84.50
2023-04-08T16:27:51.029Z,86.99
2023-04-08T16:30:23.319Z,90.40
2023-04-08T16:32:55.578Z,88.53
2023-04-08T16:35:27.861Z,88.51
2023-04-08T16:38:02.667Z,91.86
2023-04-08T16:40:35.298Z,96.24
2023-04-08T16:43:07.998Z,95.63
2023-04-08T16:45:40.568Z,97.27
2023-04-08T16:48:12.870Z,96.54
2023-04-08T16:50:45.765Z,97.96
2023-04-08T16:53:20.678Z,100.57
2023-04-08T16:55:52.859Z,109.79
2023-04-08T16:58:25.120Z,114.84
2023-04-08T17:00:57.398Z,119.24
2023-04-08T17:03:30.043Z,120.13
2023-04-08T17:06:10.615Z,125.76
2023-04-08T17:08:46.109Z,129.66
2023-04-08T17:11:19.442Z,130.94
2023-04-08T17:13:52.311Z,133.53
2023-04-08T17:16:25.156Z,136.75
2023-04-08T17:18:57.411Z,136.48
2023-04-08T17:21:29.771Z,136.89
2023-04-08T17:24:04.646Z,140.24
2023-04-08T17:26:36.845Z,138.39
2023-04-08T17:29:09.074Z,141.96
2023-04-08T17:31:41.727Z,142.14
2023-04-08T17:34:14.055Z,141.04
2023-04-08T17:36:46.484Z,145.92
2023-04-08T17:39:21.896Z,136.53
2023-04-08T17:41:54.303Z,135.24
2023-04-08T17:44:29.844Z,134.56
2023-04-08T17:47:02.298Z,138.21
2023-04-08T17:49:34.794Z,141.01
2023-04-08T17:52:07.216Z,144.24
2023-04-08T17:54:42.065Z,140.77
2023-04-08T17:57:14.412Z,145.16
2023-04-08T17:59:46.672Z,145.21
2023-04-08T18:02:19.072Z,145.60
2023-04-08T18:04:51.356Z,143.99
2023-04-08T18:07:23.558Z,148.84
2023-04-08T18:09:58.449Z,145.03
2023-04-08T18:12:32.533Z,146.76
2023-04-08T18:15:04.968Z,146.74
2023-04-08T18:17:38.430Z,148.28
2023-04-08T18:20:12.228Z,148.56
2023-04-08T18:22:44.526Z,154.24
2023-04-08T18:25:22.478Z,154.38
2023-04-08T18:27:54.710Z,149.75
2023-04-08T18:30:26.967Z,154.18
2023-04-08T18:32:59.310Z,153.66
2023-04-08T18:35:31.926Z,155.71
2023-04-08T18:38:04.224Z,149.88
2023-04-08T18:40:39.263Z,155.82
2023-04-08T18:43:12.183Z,154.91
2023-04-08T18:45:44.930Z,156.23
2023-04-08T18:48:17.111Z,157.99
2023-04-08T18:50:49.394Z,163.40
2023-04-08T18:53:22.108Z,155.44
2023-04-08T18:55:56.930Z,153.50
2023-04-08T18:58:29.987Z,154.14
2023-04-08T19:01:02.344Z,164.39
2023-04-08T19:03:34.713Z,160.98
2023-04-08T19:06:09.603Z,165.36
2023-04-08T19:08:42.447Z,168.49
2023-04-08T19:11:17.248Z,171.24
2023-04-08T19:13:49.678Z,165.09
2023-04-08T19:16:22.152Z,169.30
2023-04-08T19:18:55.161Z,164.87
2023-04-08T19:21:28.231Z,171.22
2023-04-08T19:24:00.680Z,175.36
2023-04-08T19:26:36.307Z,167.32
2023-04-08T19:29:09.562Z,171.31
2023-04-08T19:31:41.926Z,172.06
2023-04-08T19:34:14.172Z,168.29
2023-04-08T19:36:46.575Z,166.36
2023-04-08T19:39:19.395Z,174.97
2023-04-08T19:41:54.219Z,183.56
2023-04-08T19:44:26.493Z,170.00
2023-04-08T19:46:58.711Z,171.06
2023-04-08T19:49:30.945Z,170.17
2023-04-08T19:52:03.240Z,168.85
2023-04-08T19:54:36.540Z,160.66
2023-04-08T19:57:12.504Z,155.69
2023-04-08T19:59:44.761Z,164.54
2023-04-08T20:02:17.181Z,158.00
2023-04-08T20:04:49.778Z,154.66
2023-04-08T20:07:22.049Z,152.63
2023-04-08T20:09:54.243Z,154.86
2023-04-08T20:12:30.442Z,161.95
2023-04-08T20:15:02.747Z,156.88
2023-04-08T20:17:35.122Z,157.11
2023-04-08T20:20:08.047Z,161.31
2023-04-08T20:22:40.591Z,161.06
2023-04-08T20:25:12.912Z,161.94
2023-04-08T20:27:47.757Z,163.25
2023-04-08T20:30:20.017Z,162.36
2023-04-08T20:32:52.549Z,162.09
2023-04-08T20:35:24.786Z,159.72
2023-04-08T20:37:57.435Z,158.46
2023-04-08T20:40:29.677Z,162.03
2023-04-08T20:43:04.453Z,160.89
2023-04-08T20:45:36.931Z,161.91
2023-04-08T20:48:10.119Z,160.84
2023-04-08T20:50:42.323Z,158.92
2023-04-08T20:53:14.510Z,157.54
2023-04-08T20:55:46.731Z,152.77
2023-04-08T20:58:21.774Z,153.91
2023-04-08T21:00:54.096Z,158.71
2023-04-08T21:03:26.797Z,156.89
2023-04-08T21:05:59.043Z,153.84
2023-04-08T21:08:31.286Z,155.27
2023-04-08T21:11:03.520Z,152.77
2023-04-08T21:13:38.389Z,157.51
2023-04-08T21:16:11.160Z,158.91
2023-04-08T21:18:43.762Z,161.44
2023-04-08T21:21:16.134Z,158.09
2023-04-08T21:23:48.365Z,158.54
2023-04-08T21:26:21.532Z,161.16
2023-04-08T21:28:56.340Z,157.18
2023-04-08T21:31:29.078Z,163.42
2023-04-08T21:34:01.495Z,168.94
2023-04-08T21:36:33.753Z,171.83
2023-04-08T21:39:06.420Z,169.25
2023-04-08T21:41:38.695Z,170.13
2023-04-08T21:46:47.676Z,172.81
2023-04-08T21:49:19.843Z,169.41
2023-04-08T21:51:52.115Z,180.16
2023-04-08T21:54:24.291Z,169.51
2023-04-08T21:56:56.900Z,170.88
2023-04-08T21:59:31.973Z,166.46
2023-04-08T22:02:04.607Z,161.99
2023-04-08T22:04:36.824Z,165.82
2023-04-08T22:07:09.192Z,167.14
2023-04-08T22:09:41.596Z,171.71
2023-04-08T22:12:14.665Z,178.69
2023-04-08T22:14:49.532Z,181.76
2023-04-08T22:17:21.921Z,183.25
2023-04-08T22:19:54.120Z,195.14
2023-04-08T22:22:26.354Z,205.47
2023-04-08T22:24:58.567Z,204.30
2023-04-08T22:27:32.431Z,210.88
2023-04-08T22:30:07.438Z,209.00
2023-04-08T22:32:39.820Z,199.08
2023-04-08T22:35:13.568Z,196.08
2023-04-08T22:37:46.095Z,191.37
2023-04-08T22:40:18.443Z,196.70
2023-04-08T22:42:50.724Z,191.78
2023-04-08T22:45:25.727Z,193.61
2023-04-08T22:47:57.978Z,199.10
2023-04-08T22:50:30.279Z,192.65
2023-04-08T22:53:02.540Z,194.38
2023-04-08T22:55:34.905Z,189.18
2023-04-08T22:58:07.173Z,194.14
2023-04-08T23:00:42.475Z,197.15
2023-04-08T23:03:14.792Z,192.56
2023-04-08T23:05:47.020Z,195.92
2023-04-08T23:08:19.366Z,195.58
2023-04-08T23:10:51.549Z,194.40
2023-04-08T23:13:23.745Z,198.49
2023-04-08T23:15:59.052Z,192.01
2023-04-08T23:18:31.488Z,192.17
2023-04-08T23:21:04.084Z,193.88
2023-04-08T23:23:36.348Z,195.47
2023-04-08T23:26:08.650Z,194.36
2023-04-08T23:28:40.858Z,194.99
2023-04-08T23:31:15.959Z,201.91
2023-04-08T23:33:48.216Z,195.79
2023-04-08T23:36:20.528Z,199.54
2023-04-08T23:38:54.159Z,197.93
2023-04-08T23:41:26.580Z,196.36
2023-04-08T23:43:58.773Z,192.18
2023-04-08T23:46:33.644Z,197.34
2023-04-08T23:49:05.824Z,195.01
2023-04-08T23:51:38.939Z,188.24
2023-04-08T23:54:11.415Z,188.47
2023-04-08T23:56:44.959Z,193.81
2023-04-08T23:59:17.252Z,189.66
